sensor_id;sensor_type;location;lat;lon;timestamp;temperature;humidity
6792;DHT22;3433;48.730;9.108;2023-07-02T00:01:15;18.90;99.90
6792;DHT22;3433;48.730;9.108;2023-07-02T00:04:02;18.90;99.90
6792;DHT22;3433;48.730;9.108;2023-07-02T00:06:49;18.90;99.90
6792;DHT22;3433;48.730;9.108;2023-07-02T00:09:37;18.90;99.90
6792;DHT22;3433;48.730;9.108;2023-07-02T00:12:24;18.80;99.90
6792;DHT22;3433;48.730;9.108;2023-07-02T00:15:11;18.90;99.90
6792;DHT22;3433;48.730;9.108;2023-07-02T00:18:00;18.80;99.90
6792;DHT22;3433;48.730;9.108;2023-07-02T00:20:47;18.80;99.90
6792;DHT22;3433;48.730;9.108;2023-07-02T00:23:34;18.70;99.90
6792;DHT22;3433;48.730;9.108;2023-07-02T00:26:21;18.70;99.90
6792;DHT22;3433;48.730;9.108;2023-07-02T00:29:08;18.80;99.90
6792;DHT22;3433;48.730;9.108;2023-07-02T00:31:56;18.60;99.90
6792;DHT22;3433;48.730;9.108;2023-07-02T00:34:44;18.60;99.90
6792;DHT22;3433;48.730;9.108;2023-07-02T00:37:31;18.60;99.90
6792;DHT22;3433;48.730;9.108;2023-07-02T00:40:18;18.60;99.90
6792;DHT22;3433;48.730;9.108;2023-07-02T00:43:06;18.60;99.90
6792;DHT22;3433;48.730;9.108;2023-07-02T00:45:58;18.60;99.90
6792;DHT22;3433;48.730;9.108;2023-07-02T00:48:47;18.60;99.90
6792;DHT22;3433;48.730;9.108;2023-07-02T00:51:36;18.70;99.90
6792;DHT22;3433;48.730;9.108;2023-07-02T00:54:24;18.60;99.90
6792;DHT22;3433;48.730;9.108;2023-07-02T00:57:11;18.70;99.90
6792;DHT22;3433;48.730;9.108;2023-07-02T00:59:59;18.70;99.90
6792;DHT22;3433;48.730;9.108;2023-07-02T01:02:53;18.70;99.90
6792;DHT22;3433;48.730;9.108;2023-07-02T01:05:44;18.60;99.90
6792;DHT22;3433;48.730;9.108;2023-07-02T01:08:33;18.60;99.90
6792;DHT22;3433;48.730;9.108;2023-07-02T01:11:23;18.60;99.90
6792;DHT22;3433;48.730;9.108;2023-07-02T01:14:15;18.60;99.90
6792;DHT22;3433;48.730;9.108;2023-07-02T01:17:05;18.60;99.90
6792;DHT22;3433;48.730;9.108;2023-07-02T01:19:55;18.60;99.90
6792;DHT22;3433;48.730;9.108;2023-07-02T01:22:44;18.60;99.90
6792;DHT22;3433;48.730;9.108;2023-07-02T01:25:31;18.60;99.90
6792;DHT22;3433;48.730;9.108;2023-07-02T01:28:22;18.60;99.90
6792;DHT22;3433;48.730;9.108;2023-07-02T01:31:10;18.60;99.90
6792;DHT22;3433;48.730;9.108;2023-07-02T01:33:57;18.50;99.90
6792;DHT22;3433;48.730;9.108;2023-07-02T01:36:46;18.50;99.90
6792;DHT22;3433;48.730;9.108;2023-07-02T01:39:33;18.50;99.70
6792;DHT22;3433;48.730;9.108;2023-07-02T01:42:20;18.60;99.60
6792;DHT22;3433;48.730;9.108;2023-07-02T01:45:08;18.50;99.70
6792;DHT22;3433;48.730;9.108;2023-07-02T01:47:55;18.50;99.90
6792;DHT22;3433;48.730;9.108;2023-07-02T01:50:43;18.50;99.60
6792;DHT22;3433;48.730;9.108;2023-07-02T01:53:31;18.50;99.60
6792;DHT22;3433;48.730;9.108;2023-07-02T01:56:18;18.50;99.80
6792;DHT22;3433;48.730;9.108;2023-07-02T01:59:06;18.50;99.70
6792;DHT22;3433;48.730;9.108;2023-07-02T02:01:53;18.40;99.50
6792;DHT22;3433;48.730;9.108;2023-07-02T02:04:40;18.50;99.40
6792;DHT22;3433;48.730;9.108;2023-07-02T02:07:28;18.50;99.50
6792;DHT22;3433;48.730;9.108;2023-07-02T02:10:16;18.40;99.80
6792;DHT22;3433;48.730;9.108;2023-07-02T02:13:03;18.50;99.50
6792;DHT22;3433;48.730;9.108;2023-07-02T02:15:51;18.50;99.40
6792;DHT22;3433;48.730;9.108;2023-07-02T02:18:38;18.50;99.60
6792;DHT22;3433;48.730;9.108;2023-07-02T02:21:25;18.50;99.60
6792;DHT22;3433;48.730;9.108;2023-07-02T02:24:12;18.40;99.80
6792;DHT22;3433;48.730;9.108;2023-07-02T02:27:01;18.50;99.30
6792;DHT22;3433;48.730;9.108;2023-07-02T02:29:48;18.50;99.40
6792;DHT22;3433;48.730;9.108;2023-07-02T02:32:36;18.50;99.30
6792;DHT22;3433;48.730;9.108;2023-07-02T02:35:24;18.50;99.60
6792;DHT22;3433;48.730;9.108;2023-07-02T02:38:11;18.50;99.70
6792;DHT22;3433;48.730;9.108;2023-07-02T02:41:00;18.50;99.70
6792;DHT22;3433;48.730;9.108;2023-07-02T02:43:49;18.40;99.50
6792;DHT22;3433;48.730;9.108;2023-07-02T02:46:36;18.40;99.70
6792;DHT22;3433;48.730;9.108;2023-07-02T02:49:23;18.40;99.80
6792;DHT22;3433;48.730;9.108;2023-07-02T02:52:11;18.40;99.60
6792;DHT22;3433;48.730;9.108;2023-07-02T02:55:00;18.40;99.70
6792;DHT22;3433;48.730;9.108;2023-07-02T02:57:47;18.40;99.90
6792;DHT22;3433;48.730;9.108;2023-07-02T03:00:36;18.40;99.90
6792;DHT22;3433;48.730;9.108;2023-07-02T03:03:24;18.40;99.90
6792;DHT22;3433;48.730;9.108;2023-07-02T03:06:12;18.50;99.90
6792;DHT22;3433;48.730;9.108;2023-07-02T03:09:00;18.30;99.90
6792;DHT22;3433;48.730;9.108;2023-07-02T03:11:47;18.30;99.90
6792;DHT22;3433;48.730;9.108;2023-07-02T03:14:35;18.40;99.90
6792;DHT22;3433;48.730;9.108;2023-07-02T03:17:23;18.40;99.90
6792;DHT22;3433;48.730;9.108;2023-07-02T03:20:11;18.40;99.90
6792;DHT22;3433;48.730;9.108;2023-07-02T03:22:58;18.40;99.90
6792;DHT22;3433;48.730;9.108;2023-07-02T03:25:45;18.20;99.90
6792;DHT22;3433;48.730;9.108;2023-07-02T03:28:33;18.30;99.90
6792;DHT22;3433;48.730;9.108;2023-07-02T03:31:20;18.20;99.90
6792;DHT22;3433;48.730;9.108;2023-07-02T03:34:10;18.20;99.90
6792;DHT22;3433;48.730;9.108;2023-07-02T03:36:57;17.90;99.90
6792;DHT22;3433;48.730;9.108;2023-07-02T03:39:44;18.10;99.90
6792;DHT22;3433;48.730;9.108;2023-07-02T03:42:33;18.00;99.90
6792;DHT22;3433;48.730;9.108;2023-07-02T03:45:20;18.00;99.90
6792;DHT22;3433;48.730;9.108;2023-07-02T03:48:07;18.00;99.90
6792;DHT22;3433;48.730;9.108;2023-07-02T03:50:56;18.00;99.90
6792;DHT22;3433;48.730;9.108;2023-07-02T03:53:43;17.90;99.90
6792;DHT22;3433;48.730;9.108;2023-07-02T03:56:30;17.90;99.90
6792;DHT22;3433;48.730;9.108;2023-07-02T03:59:18;17.80;99.90
6792;DHT22;3433;48.730;9.108;2023-07-02T04:02:05;17.80;99.90
6792;DHT22;3433;48.730;9.108;2023-07-02T04:04:52;17.80;99.90
6792;DHT22;3433;48.730;9.108;2023-07-02T04:07:41;17.90;99.90
6792;DHT22;3433;48.730;9.108;2023-07-02T04:10:28;17.80;99.90
6792;DHT22;3433;48.730;9.108;2023-07-02T04:13:16;17.70;99.90
6792;DHT22;3433;48.730;9.108;2023-07-02T04:16:03;17.80;99.90
6792;DHT22;3433;48.730;9.108;2023-07-02T04:18:50;17.80;99.90
6792;DHT22;3433;48.730;9.108;2023-07-02T04:21:38;17.70;99.90
6792;DHT22;3433;48.730;9.108;2023-07-02T04:24:26;17.60;99.90
6792;DHT22;3433;48.730;9.108;2023-07-02T04:27:13;17.70;99.90
6792;DHT22;3433;48.730;9.108;2023-07-02T04:30:04;17.70;99.90
6792;DHT22;3433;48.730;9.108;2023-07-02T04:32:54;17.70;99.90
6792;DHT22;3433;48.730;9.108;2023-07-02T04:35:41;17.70;99.90
6792;DHT22;3433;48.730;9.108;2023-07-02T04:38:29;17.70;99.90
6792;DHT22;3433;48.730;9.108;2023-07-02T04:41:21;17.60;99.90
6792;DHT22;3433;48.730;9.108;2023-07-02T04:44:08;17.60;99.90
6792;DHT22;3433;48.730;9.108;2023-07-02T04:46:57;17.70;99.90
6792;DHT22;3433;48.730;9.108;2023-07-02T04:49:44;17.60;99.90
6792;DHT22;3433;48.730;9.108;2023-07-02T04:52:31;17.70;99.90
6792;DHT22;3433;48.730;9.108;2023-07-02T04:55:18;17.70;99.90
6792;DHT22;3433;48.730;9.108;2023-07-02T04:58:07;17.80;99.90
6792;DHT22;3433;48.730;9.108;2023-07-02T05:00:54;17.80;99.90
6792;DHT22;3433;48.730;9.108;2023-07-02T05:03:41;17.80;99.90
6792;DHT22;3433;48.730;9.108;2023-07-02T05:06:28;17.90;99.90
6792;DHT22;3433;48.730;9.108;2023-07-02T05:09:16;17.90;99.90
6792;DHT22;3433;48.730;9.108;2023-07-02T05:12:03;17.90;99.90
6792;DHT22;3433;48.730;9.108;2023-07-02T05:14:52;17.90;99.90
6792;DHT22;3433;48.730;9.108;2023-07-02T05:17:39;17.90;99.90
6792;DHT22;3433;48.730;9.108;2023-07-02T05:20:26;18.00;99.90
6792;DHT22;3433;48.730;9.108;2023-07-02T05:23:13;17.90;99.90
6792;DHT22;3433;48.730;9.108;2023-07-02T05:26:01;17.90;99.90
6792;DHT22;3433;48.730;9.108;2023-07-02T05:28:48;18.00;99.90
6792;DHT22;3433;48.730;9.108;2023-07-02T05:31:37;18.00;99.90
6792;DHT22;3433;48.730;9.108;2023-07-02T05:34:24;18.00;99.90
6792;DHT22;3433;48.730;9.108;2023-07-02T05:37:11;18.00;99.90
6792;DHT22;3433;48.730;9.108;2023-07-02T05:39:58;18.00;99.90
6792;DHT22;3433;48.730;9.108;2023-07-02T05:42:46;18.00;99.90
6792;DHT22;3433;48.730;9.108;2023-07-02T05:45:33;18.10;99.90
6792;DHT22;3433;48.730;9.108;2023-07-02T05:48:21;18.20;99.90
6792;DHT22;3433;48.730;9.108;2023-07-02T05:51:09;18.20;99.90
6792;DHT22;3433;48.730;9.108;2023-07-02T05:53:56;18.30;99.90
6792;DHT22;3433;48.730;9.108;2023-07-02T05:56:43;18.40;99.90
6792;DHT22;3433;48.730;9.108;2023-07-02T05:59:30;18.40;99.90
6792;DHT22;3433;48.730;9.108;2023-07-02T06:02:17;18.50;99.90
6792;DHT22;3433;48.730;9.108;2023-07-02T06:05:07;18.60;99.90
6792;DHT22;3433;48.730;9.108;2023-07-02T06:07:54;18.60;99.90
6792;DHT22;3433;48.730;9.108;2023-07-02T06:10:42;18.70;99.90
6792;DHT22;3433;48.730;9.108;2023-07-02T06:13:29;18.70;99.90
6792;DHT22;3433;48.730;9.108;2023-07-02T06:16:16;18.80;99.90
6792;DHT22;3433;48.730;9.108;2023-07-02T06:19:03;18.90;99.90
6792;DHT22;3433;48.730;9.108;2023-07-02T06:21:52;18.90;99.90
6792;DHT22;3433;48.730;9.108;2023-07-02T06:24:39;19.10;99.90
6792;DHT22;3433;48.730;9.108;2023-07-02T06:27:26;19.10;99.90
6792;DHT22;3433;48.730;9.108;2023-07-02T06:30:13;19.20;99.90
6792;DHT22;3433;48.730;9.108;2023-07-02T06:33:01;19.20;99.90
6792;DHT22;3433;48.730;9.108;2023-07-02T06:35:49;19.30;99.90
6792;DHT22;3433;48.730;9.108;2023-07-02T06:38:37;19.30;99.90
6792;DHT22;3433;48.730;9.108;2023-07-02T06:41:24;19.20;99.90
6792;DHT22;3433;48.730;9.108;2023-07-02T06:44:12;19.30;99.90
6792;DHT22;3433;48.730;9.108;2023-07-02T06:46:59;19.20;99.90
6792;DHT22;3433;48.730;9.108;2023-07-02T06:49:46;19.30;99.90
6792;DHT22;3433;48.730;9.108;2023-07-02T06:52:33;19.20;99.90
6792;DHT22;3433;48.730;9.108;2023-07-02T06:57:54;19.40;99.80
6792;DHT22;3433;48.730;9.108;2023-07-02T07:00:41;19.40;99.50
6792;DHT22;3433;48.730;9.108;2023-07-02T07:03:28;19.50;99.80
6792;DHT22;3433;48.730;9.108;2023-07-02T07:06:15;19.60;99.90
6792;DHT22;3433;48.730;9.108;2023-07-02T07:09:02;19.60;99.50
6792;DHT22;3433;48.730;9.108;2023-07-02T07:11:50;19.80;99.40
6792;DHT22;3433;48.730;9.108;2023-07-02T07:14:38;19.90;98.90
6792;DHT22;3433;48.730;9.108;2023-07-02T07:17:31;20.00;98.80
6792;DHT22;3433;48.730;9.108;2023-07-02T07:20:34;20.10;98.80
6792;DHT22;3433;48.730;9.108;2023-07-02T07:23:22;20.30;98.30
6792;DHT22;3433;48.730;9.108;2023-07-02T07:26:09;20.30;98.60
6792;DHT22;3433;48.730;9.108;2023-07-02T07:28:57;20.50;97.80
6792;DHT22;3433;48.730;9.108;2023-07-02T07:31:45;20.40;97.40
6792;DHT22;3433;48.730;9.108;2023-07-02T07:34:33;20.40;97.50
6792;DHT22;3433;48.730;9.108;2023-07-02T07:37:20;20.60;97.40
6792;DHT22;3433;48.730;9.108;2023-07-02T07:40:29;20.70;97.10
6792;DHT22;3433;48.730;9.108;2023-07-02T07:47:06;20.70;97.00
6792;DHT22;3433;48.730;9.108;2023-07-02T07:49:53;20.60;96.70
6792;DHT22;3433;48.730;9.108;2023-07-02T07:52:43;20.70;96.50
6792;DHT22;3433;48.730;9.108;2023-07-02T07:55:30;20.80;95.90
6792;DHT22;3433;48.730;9.108;2023-07-02T07:58:18;20.90;96.80
6792;DHT22;3433;48.730;9.108;2023-07-02T08:01:05;21.00;96.00
6792;DHT22;3433;48.730;9.108;2023-07-02T08:03:54;20.90;95.90
6792;DHT22;3433;48.730;9.108;2023-07-02T08:06:41;21.20;96.30
6792;DHT22;3433;48.730;9.108;2023-07-02T08:09:28;21.50;95.80
6792;DHT22;3433;48.730;9.108;2023-07-02T08:12:16;21.50;94.50
6792;DHT22;3433;48.730;9.108;2023-07-02T08:15:04;21.70;95.20
6792;DHT22;3433;48.730;9.108;2023-07-02T08:17:51;21.60;94.50
6792;DHT22;3433;48.730;9.108;2023-07-02T08:20:41;21.80;94.90
6792;DHT22;3433;48.730;9.108;2023-07-02T08:23:28;21.90;94.50
6792;DHT22;3433;48.730;9.108;2023-07-02T08:26:16;22.20;94.80
6792;DHT22;3433;48.730;9.108;2023-07-02T08:29:03;22.10;93.70
6792;DHT22;3433;48.730;9.108;2023-07-02T08:31:50;22.10;94.30
6792;DHT22;3433;48.730;9.108;2023-07-02T08:34:37;22.20;93.20
6792;DHT22;3433;48.730;9.108;2023-07-02T08:37:26;22.20;94.30
6792;DHT22;3433;48.730;9.108;2023-07-02T08:40:16;22.30;94.00
6792;DHT22;3433;48.730;9.108;2023-07-02T08:43:04;22.50;94.40
6792;DHT22;3433;48.730;9.108;2023-07-02T08:45:51;22.70;92.90
6792;DHT22;3433;48.730;9.108;2023-07-02T08:48:39;22.70;93.60
6792;DHT22;3433;48.730;9.108;2023-07-02T08:51:27;22.80;93.10
6792;DHT22;3433;48.730;9.108;2023-07-02T08:54:17;22.60;92.50
6792;DHT22;3433;48.730;9.108;2023-07-02T08:57:05;22.80;92.60
6792;DHT22;3433;48.730;9.108;2023-07-02T08:59:52;22.80;91.90
6792;DHT22;3433;48.730;9.108;2023-07-02T09:02:39;22.90;91.60
6792;DHT22;3433;48.730;9.108;2023-07-02T09:05:27;22.90;91.70
6792;DHT22;3433;48.730;9.108;2023-07-02T09:08:23;22.80;92.80
6792;DHT22;3433;48.730;9.108;2023-07-02T09:11:12;22.80;91.80
6792;DHT22;3433;48.730;9.108;2023-07-02T09:14:07;23.10;91.90
6792;DHT22;3433;48.730;9.108;2023-07-02T09:17:05;23.30;92.20
6792;DHT22;3433;48.730;9.108;2023-07-02T09:19:54;23.40;90.80
6792;DHT22;3433;48.730;9.108;2023-07-02T09:22:41;23.60;91.10
6792;DHT22;3433;48.730;9.108;2023-07-02T09:25:37;23.70;90.90
6792;DHT22;3433;48.730;9.108;2023-07-02T09:28:26;23.80;90.60
6792;DHT22;3433;48.730;9.108;2023-07-02T09:31:13;23.90;88.70
6792;DHT22;3433;48.730;9.108;2023-07-02T09:34:03;23.80;89.30
6792;DHT22;3433;48.730;9.108;2023-07-02T09:36:51;23.90;90.20
6792;DHT22;3433;48.730;9.108;2023-07-02T09:39:38;23.90;90.90
6792;DHT22;3433;48.730;9.108;2023-07-02T09:42:26;23.90;91.10
6792;DHT22;3433;48.730;9.108;2023-07-02T09:45:16;23.70;89.70
6792;DHT22;3433;48.730;9.108;2023-07-02T09:48:04;23.70;90.90
6792;DHT22;3433;48.730;9.108;2023-07-02T09:50:53;23.50;90.50
6792;DHT22;3433;48.730;9.108;2023-07-02T09:53:41;23.60;90.70
6792;DHT22;3433;48.730;9.108;2023-07-02T09:56:28;23.70;90.30
6792;DHT22;3433;48.730;9.108;2023-07-02T09:59:15;23.50;90.50
6792;DHT22;3433;48.730;9.108;2023-07-02T10:02:04;23.70;90.70
6792;DHT22;3433;48.730;9.108;2023-07-02T10:04:52;23.80;90.10
6792;DHT22;3433;48.730;9.108;2023-07-02T10:07:41;24.00;89.40
6792;DHT22;3433;48.730;9.108;2023-07-02T10:10:29;24.10;89.30
6792;DHT22;3433;48.730;9.108;2023-07-02T10:13:26;24.20;89.20
6792;DHT22;3433;48.730;9.108;2023-07-02T10:16:13;24.20;88.20
6792;DHT22;3433;48.730;9.108;2023-07-02T10:19:12;24.30;86.60
6792;DHT22;3433;48.730;9.108;2023-07-02T10:22:03;24.40;86.30
6792;DHT22;3433;48.730;9.108;2023-07-02T10:24:54;24.60;86.90
6792;DHT22;3433;48.730;9.108;2023-07-02T10:27:43;24.70;85.70
6792;DHT22;3433;48.730;9.108;2023-07-02T10:30:31;24.50;82.80
6792;DHT22;3433;48.730;9.108;2023-07-02T10:33:18;24.40;84.60
6792;DHT22;3433;48.730;9.108;2023-07-02T10:36:17;24.80;85.50
6792;DHT22;3433;48.730;9.108;2023-07-02T10:39:05;24.70;85.40
6792;DHT22;3433;48.730;9.108;2023-07-02T10:41:52;24.50;86.20
6792;DHT22;3433;48.730;9.108;2023-07-02T10:44:47;24.40;86.80
6792;DHT22;3433;48.730;9.108;2023-07-02T10:47:39;24.40;88.10
6792;DHT22;3433;48.730;9.108;2023-07-02T10:50:27;24.10;84.40
6792;DHT22;3433;48.730;9.108;2023-07-02T10:53:16;24.50;86.50
6792;DHT22;3433;48.730;9.108;2023-07-02T10:56:04;25.00;87.10
6792;DHT22;3433;48.730;9.108;2023-07-02T10:58:51;25.20;85.60
6792;DHT22;3433;48.730;9.108;2023-07-02T11:01:38;25.00;84.20
6792;DHT22;3433;48.730;9.108;2023-07-02T11:04:26;25.30;84.80
6792;DHT22;3433;48.730;9.108;2023-07-02T11:07:14;25.50;86.60
6792;DHT22;3433;48.730;9.108;2023-07-02T11:10:03;25.30;84.10
6792;DHT22;3433;48.730;9.108;2023-07-02T11:12:50;25.40;82.00
6792;DHT22;3433;48.730;9.108;2023-07-02T11:15:38;25.30;82.10
6792;DHT22;3433;48.730;9.108;2023-07-02T11:18:30;25.30;83.50
6792;DHT22;3433;48.730;9.108;2023-07-02T11:21:18;25.40;80.40
6792;DHT22;3433;48.730;9.108;2023-07-02T11:24:06;25.80;81.10
6792;DHT22;3433;48.730;9.108;2023-07-02T11:26:55;26.00;81.20
6792;DHT22;3433;48.730;9.108;2023-07-02T11:29:42;26.30;82.50
6792;DHT22;3433;48.730;9.108;2023-07-02T11:32:30;26.60;82.10
6792;DHT22;3433;48.730;9.108;2023-07-02T11:35:18;26.80;76.30
6792;DHT22;3433;48.730;9.108;2023-07-02T11:38:05;26.90;79.80
6792;DHT22;3433;48.730;9.108;2023-07-02T11:40:56;27.10;79.50
6792;DHT22;3433;48.730;9.108;2023-07-02T11:43:44;27.50;79.50
6792;DHT22;3433;48.730;9.108;2023-07-02T11:46:32;27.70;77.20
6792;DHT22;3433;48.730;9.108;2023-07-02T11:49:19;27.70;79.80
6792;DHT22;3433;48.730;9.108;2023-07-02T11:52:06;27.70;78.50
6792;DHT22;3433;48.730;9.108;2023-07-02T11:54:54;27.60;81.30
6792;DHT22;3433;48.730;9.108;2023-07-02T11:57:42;27.60;81.60
6792;DHT22;3433;48.730;9.108;2023-07-02T12:00:30;27.80;76.60
6792;DHT22;3433;48.730;9.108;2023-07-02T12:03:17;27.50;75.90
6792;DHT22;3433;48.730;9.108;2023-07-02T12:06:05;27.10;76.10
6792;DHT22;3433;48.730;9.108;2023-07-02T12:08:52;27.30;75.90
6792;DHT22;3433;48.730;9.108;2023-07-02T12:11:39;27.40;72.30
6792;DHT22;3433;48.730;9.108;2023-07-02T12:14:26;27.40;74.80
6792;DHT22;3433;48.730;9.108;2023-07-02T12:17:15;27.90;75.30
6792;DHT22;3433;48.730;9.108;2023-07-02T12:20:02;28.10;71.90
6792;DHT22;3433;48.730;9.108;2023-07-02T12:22:50;28.10;73.50
6792;DHT22;3433;48.730;9.108;2023-07-02T12:25:37;27.90;73.60
6792;DHT22;3433;48.730;9.108;2023-07-02T12:28:24;28.00;69.80
6792;DHT22;3433;48.730;9.108;2023-07-02T12:31:11;28.10;73.40
6792;DHT22;3433;48.730;9.108;2023-07-02T12:34:02;28.20;71.40
6792;DHT22;3433;48.730;9.108;2023-07-02T12:36:49;28.50;72.40
6792;DHT22;3433;48.730;9.108;2023-07-02T12:39:36;28.60;72.20
6792;DHT22;3433;48.730;9.108;2023-07-02T12:42:23;28.60;71.00
6792;DHT22;3433;48.730;9.108;2023-07-02T12:45:11;29.00;73.30
6792;DHT22;3433;48.730;9.108;2023-07-02T12:47:59;28.40;69.70
6792;DHT22;3433;48.730;9.108;2023-07-02T12:50:57;28.30;74.70
6792;DHT22;3433;48.730;9.108;2023-07-02T12:53:45;28.60;70.80
6792;DHT22;3433;48.730;9.108;2023-07-02T12:56:32;29.00;73.40
6792;DHT22;3433;48.730;9.108;2023-07-02T12:59:19;29.10;70.80
6792;DHT22;3433;48.730;9.108;2023-07-02T13:02:07;28.90;70.20
6792;DHT22;3433;48.730;9.108;2023-07-02T13:04:55;29.10;66.40
6792;DHT22;3433;48.730;9.108;2023-07-02T13:07:46;29.10;68.80
6792;DHT22;3433;48.730;9.108;2023-07-02T13:10:37;28.90;68.20
6792;DHT22;3433;48.730;9.108;2023-07-02T13:13:30;28.60;65.40
6792;DHT22;3433;48.730;9.108;2023-07-02T13:16:26;28.50;69.80
6792;DHT22;3433;48.730;9.108;2023-07-02T13:19:15;28.50;70.30
6792;DHT22;3433;48.730;9.108;2023-07-02T13:22:02;28.70;66.10
6792;DHT22;3433;48.730;9.108;2023-07-02T13:24:51;29.00;68.40
6792;DHT22;3433;48.730;9.108;2023-07-02T13:27:38;28.90;64.30
6792;DHT22;3433;48.730;9.108;2023-07-02T13:30:25;29.00;66.50
6792;DHT22;3433;48.730;9.108;2023-07-02T13:33:14;28.90;63.50
6792;DHT22;3433;48.730;9.108;2023-07-02T13:36:01;29.00;64.90
6792;DHT22;3433;48.730;9.108;2023-07-02T13:38:48;28.90;64.20
6792;DHT22;3433;48.730;9.108;2023-07-02T13:41:37;28.70;64.00
6792;DHT22;3433;48.730;9.108;2023-07-02T13:44:24;28.80;63.90
6792;DHT22;3433;48.730;9.108;2023-07-02T13:47:11;29.10;65.40
6792;DHT22;3433;48.730;9.108;2023-07-02T13:49:58;29.00;64.90
6792;DHT22;3433;48.730;9.108;2023-07-02T13:52:46;29.00;65.20
6792;DHT22;3433;48.730;9.108;2023-07-02T13:55:35;29.30;65.40
6792;DHT22;3433;48.730;9.108;2023-07-02T13:58:24;29.30;63.10
6792;DHT22;3433;48.730;9.108;2023-07-02T14:01:12;29.00;60.90
6792;DHT22;3433;48.730;9.108;2023-07-02T14:03:59;29.00;66.40
6792;DHT22;3433;48.730;9.108;2023-07-02T14:06:47;29.10;64.80
6792;DHT22;3433;48.730;9.108;2023-07-02T14:09:34;29.20;64.00
6792;DHT22;3433;48.730;9.108;2023-07-02T14:12:22;29.40;65.00
6792;DHT22;3433;48.730;9.108;2023-07-02T14:15:10;29.40;62.60
6792;DHT22;3433;48.730;9.108;2023-07-02T14:17:58;29.40;64.60
6792;DHT22;3433;48.730;9.108;2023-07-02T14:20:45;29.30;63.20
6792;DHT22;3433;48.730;9.108;2023-07-02T14:23:32;29.60;62.00
6792;DHT22;3433;48.730;9.108;2023-07-02T14:26:20;29.70;65.60
6792;DHT22;3433;48.730;9.108;2023-07-02T14:29:07;29.70;64.70
6792;DHT22;3433;48.730;9.108;2023-07-02T14:31:54;29.90;64.70
6792;DHT22;3433;48.730;9.108;2023-07-02T14:34:42;29.90;61.60
6792;DHT22;3433;48.730;9.108;2023-07-02T14:37:30;29.80;62.80
6792;DHT22;3433;48.730;9.108;2023-07-02T14:40:17;30.00;62.70
6792;DHT22;3433;48.730;9.108;2023-07-02T14:43:04;29.80;61.40
6792;DHT22;3433;48.730;9.108;2023-07-02T14:45:54;29.90;61.80
6792;DHT22;3433;48.730;9.108;2023-07-02T14:48:41;29.70;62.10
6792;DHT22;3433;48.730;9.108;2023-07-02T14:51:30;29.70;61.40
6792;DHT22;3433;48.730;9.108;2023-07-02T14:54:17;29.80;60.40
6792;DHT22;3433;48.730;9.108;2023-07-02T14:57:04;29.80;61.90
6792;DHT22;3433;48.730;9.108;2023-07-02T14:59:52;29.90;61.90
6792;DHT22;3433;48.730;9.108;2023-07-02T15:02:39;29.80;59.40
6792;DHT22;3433;48.730;9.108;2023-07-02T15:05:26;29.70;61.60
6792;DHT22;3433;48.730;9.108;2023-07-02T15:08:15;29.40;61.80
6792;DHT22;3433;48.730;9.108;2023-07-02T15:11:03;29.60;62.70
6792;DHT22;3433;48.730;9.108;2023-07-02T15:13:50;29.40;60.20
6792;DHT22;3433;48.730;9.108;2023-07-02T15:16:37;29.40;60.50
6792;DHT22;3433;48.730;9.108;2023-07-02T15:19:24;29.40;59.70
6792;DHT22;3433;48.730;9.108;2023-07-02T15:22:12;29.20;61.80
6792;DHT22;3433;48.730;9.108;2023-07-02T15:25:00;28.50;60.20
6792;DHT22;3433;48.730;9.108;2023-07-02T15:27:47;28.80;61.00
6792;DHT22;3433;48.730;9.108;2023-07-02T15:30:37;29.00;61.80
6792;DHT22;3433;48.730;9.108;2023-07-02T15:33:25;28.70;59.80
6792;DHT22;3433;48.730;9.108;2023-07-02T15:36:12;28.80;60.60
6792;DHT22;3433;48.730;9.108;2023-07-02T15:38:59;28.50;61.10
6792;DHT22;3433;48.730;9.108;2023-07-02T15:41:48;28.00;61.80
6792;DHT22;3433;48.730;9.108;2023-07-02T15:44:35;28.10;62.60
6792;DHT22;3433;48.730;9.108;2023-07-02T15:47:23;28.20;61.20
6792;DHT22;3433;48.730;9.108;2023-07-02T15:50:11;28.20;62.40
6792;DHT22;3433;48.730;9.108;2023-07-02T15:52:58;28.20;62.80
6792;DHT22;3433;48.730;9.108;2023-07-02T15:55:45;28.40;60.70
6792;DHT22;3433;48.730;9.108;2023-07-02T15:58:34;28.40;60.80
6792;DHT22;3433;48.730;9.108;2023-07-02T16:01:21;28.00;61.00
6792;DHT22;3433;48.730;9.108;2023-07-02T16:04:08;28.20;62.30
6792;DHT22;3433;48.730;9.108;2023-07-02T16:06:56;28.20;63.00
6792;DHT22;3433;48.730;9.108;2023-07-02T16:09:43;28.10;59.80
6792;DHT22;3433;48.730;9.108;2023-07-02T16:12:30;28.20;61.00
6792;DHT22;3433;48.730;9.108;2023-07-02T16:15:19;28.10;62.40
6792;DHT22;3433;48.730;9.108;2023-07-02T16:18:07;27.70;62.00
6792;DHT22;3433;48.730;9.108;2023-07-02T16:20:55;27.60;63.80
6792;DHT22;3433;48.730;9.108;2023-07-02T16:23:42;27.50;63.90
6792;DHT22;3433;48.730;9.108;2023-07-02T16:26:29;27.40;63.80
6792;DHT22;3433;48.730;9.108;2023-07-02T16:29:17;27.20;64.50
6792;DHT22;3433;48.730;9.108;2023-07-02T16:32:11;27.00;63.80
6792;DHT22;3433;48.730;9.108;2023-07-02T16:34:58;27.20;62.40
6792;DHT22;3433;48.730;9.108;2023-07-02T16:37:46;27.00;64.20
6792;DHT22;3433;48.730;9.108;2023-07-02T16:40:34;27.00;64.90
6792;DHT22;3433;48.730;9.108;2023-07-02T16:43:21;26.80;64.00
6792;DHT22;3433;48.730;9.108;2023-07-02T16:46:08;26.50;64.00
6792;DHT22;3433;48.730;9.108;2023-07-02T16:48:58;26.50;66.00
6792;DHT22;3433;48.730;9.108;2023-07-02T16:51:46;26.30;65.40
6792;DHT22;3433;48.730;9.108;2023-07-02T16:54:33;26.30;65.40
6792;DHT22;3433;48.730;9.108;2023-07-02T16:57:20;26.50;66.40
6792;DHT22;3433;48.730;9.108;2023-07-02T17:00:08;26.50;65.80
6792;DHT22;3433;48.730;9.108;2023-07-02T17:02:56;26.40;64.80
6792;DHT22;3433;48.730;9.108;2023-07-02T17:05:45;26.30;65.50
6792;DHT22;3433;48.730;9.108;2023-07-02T17:08:34;26.10;65.40
6792;DHT22;3433;48.730;9.108;2023-07-02T17:11:22;26.10;65.30
6792;DHT22;3433;48.730;9.108;2023-07-02T17:14:09;26.10;66.00
6792;DHT22;3433;48.730;9.108;2023-07-02T17:16:58;26.10;65.70
6792;DHT22;3433;48.730;9.108;2023-07-02T17:19:49;26.10;66.20
6792;DHT22;3433;48.730;9.108;2023-07-02T17:22:38;25.90;65.90
6792;DHT22;3433;48.730;9.108;2023-07-02T17:25:25;25.80;65.30
6792;DHT22;3433;48.730;9.108;2023-07-02T17:28:13;25.70;66.30
6792;DHT22;3433;48.730;9.108;2023-07-02T17:31:00;25.60;64.60
6792;DHT22;3433;48.730;9.108;2023-07-02T17:33:47;25.50;66.00
6792;DHT22;3433;48.730;9.108;2023-07-02T17:36:34;25.50;67.20
6792;DHT22;3433;48.730;9.108;2023-07-02T17:39:24;25.50;67.20
6792;DHT22;3433;48.730;9.108;2023-07-02T17:42:12;25.60;67.80
6792;DHT22;3433;48.730;9.108;2023-07-02T17:44:59;25.50;68.10
6792;DHT22;3433;48.730;9.108;2023-07-02T17:47:46;25.50;68.10
6792;DHT22;3433;48.730;9.108;2023-07-02T17:50:33;25.50;67.50
6792;DHT22;3433;48.730;9.108;2023-07-02T17:53:21;25.40;67.60
6792;DHT22;3433;48.730;9.108;2023-07-02T17:56:09;25.40;68.10
6792;DHT22;3433;48.730;9.108;2023-07-02T17:58:56;25.40;69.00
6792;DHT22;3433;48.730;9.108;2023-07-02T18:01:44;25.40;69.70
6792;DHT22;3433;48.730;9.108;2023-07-02T18:04:32;25.40;70.00
6792;DHT22;3433;48.730;9.108;2023-07-02T18:07:20;25.40;70.00
6792;DHT22;3433;48.730;9.108;2023-07-02T18:10:07;25.40;70.60
6792;DHT22;3433;48.730;9.108;2023-07-02T18:12:56;25.30;70.00
6792;DHT22;3433;48.730;9.108;2023-07-02T18:15:44;25.20;69.90
6792;DHT22;3433;48.730;9.108;2023-07-02T18:18:31;25.20;70.10
6792;DHT22;3433;48.730;9.108;2023-07-02T18:21:18;25.10;69.90
6792;DHT22;3433;48.730;9.108;2023-07-02T18:24:06;25.10;69.60